Kamey, Texas
Current Conditions -  °F | °C
As of 4:35 AM on Friday 31 Oct 2014 (Local Time) from KPKV Reporting Station
Overcast Overcast  
Wind Chill: 69°   Ceiling: 9500
Heat Index: 69°   Visibility: 10mi
Dew Point: 66°   Wind: 6mph
Humidity: 90%   Direction: 20°NNE
Pressure: 30.09"   Gusts: NA
Location:  28.5342°N, 96.663°W
Report Text: KPKV 310935Z AUTO 02005KT 10SM OVC095 21/19 A3009 RMK AO2 T02050188
Loading
Personal Weather Stations






























Interactive Weather Map
Tropical Storm Tracking
New forecast layout! Learn more

10-Day Weather Forecast

Advertisements
Track Severe Weather on mobile